Weather at Pendleton Airport

Public forecast

Using degrees Celsius for public forecast. Weather courtesy of forecast.io.

Closest aviation weather report (METAR) to Pendleton Airport

Closest report is Ottawa / Gatineau Airport, 19.8 nm (36.6 km) W. Retrieved 2021/01/21 13:26 UTC (26 minutes ago):

CYND 211326Z 08010KT 5/8SM -SN VV009 M13/M15 A2959 RMK SN8 SLP028

Closest aviation forecast (TAF) to Pendleton Airport

Closest forecast is Ottawa / Gatineau Airport, 19.8 nm (36.6 km) W. Retrieved 2021/01/21 14:00 UTC (0 seconds ago):

TAF CYND 211341Z 2114/2202 08010KT 3/4SM -SN VV009 TEMPO 2114/2116 6SM -SN OVC015 FM211600 08009KT 2SM -SN OVC009 TEMPO 2116/2121 6SM -SN OVC015 FM212100 09010KT 1SM -SN OVC008 TEMPO 2121/2202 4SM -SN OVC012 PROB30 2121/2202 3/4SM -SHSN RMK NXT FCST BY 211800Z